Time;durP1;ratioP1;P1;durP2;ratioP2;P2;SDS_P1;SDS_P2;PMS_P1;PMS_P2;Temp;Humidity;BMP_temperature;BMP_pressure;BME280_temperature;BME280_humidity;BME280_pressure;Samples;Min_cycle;Max_cycle;Signal;HPM_P1;HPM_P2
2023/02/27 00:02:13;;;;;;;14.00;13.10;;;-2.30;99.90;;;;;;5020914;28;20190;-41
2023/02/27 00:04:39;;;;;;;13.87;12.83;;;-2.30;99.90;;;;;;5020807;28;20186;-43
2023/02/27 00:07:06;;;;;;;14.60;13.57;;;-2.30;99.90;;;;;;5021645;28;20236;-42
2023/02/27 00:09:31;;;;;;;15.05;13.95;;;-2.30;99.90;;;;;;5020730;28;20193;-41
2023/02/27 00:11:57;;;;;;;14.57;13.57;;;-2.40;99.90;;;;;;5021788;28;20195;-41
2023/02/27 00:14:22;;;;;;;13.47;12.53;;;-2.40;99.90;;;;;;5018961;28;20744;-41
2023/02/27 00:16:49;;;;;;;15.17;13.93;;;-2.40;99.90;;;;;;5021153;28;20178;-42
2023/02/27 00:19:15;;;;;;;13.02;12.23;;;-2.40;99.90;;;;;;5020665;28;20870;-41
2023/02/27 00:21:40;;;;;;;13.10;12.20;;;-2.40;99.90;;;;;;5020891;28;20190;-41
2023/02/27 00:24:06;;;;;;;14.07;13.10;;;-2.50;99.90;;;;;;5020315;28;20209;-42
2023/02/27 00:26:32;;;;;;;14.38;13.43;;;-2.50;99.90;;;;;;5021414;28;20586;-42
2023/02/27 00:28:57;;;;;;;14.57;13.57;;;-2.50;99.90;;;;;;5019281;28;20597;-41
2023/02/27 00:31:23;;;;;;;14.07;13.10;;;-2.50;99.90;;;;;;5021013;28;20190;-41
2023/02/27 00:33:48;;;;;;;15.30;14.17;;;-2.50;99.90;;;;;;5019951;28;20186;-42
2023/02/27 00:36:14;;;;;;;14.57;13.50;;;-2.60;99.90;;;;;;5020919;28;20625;-42
2023/02/27 00:38:40;;;;;;;14.07;13.17;;;-2.60;99.90;;;;;;5019814;28;20244;-42
2023/02/27 00:41:05;;;;;;;14.20;13.10;;;-2.70;99.90;;;;;;5020995;28;20543;-43
2023/02/27 00:43:31;;;;;;;14.63;13.63;;;-2.70;99.90;;;;;;5020745;28;20205;-42
2023/02/27 00:45:57;;;;;;;14.30;13.40;;;-2.60;99.90;;;;;;5018832;28;20393;-42
2023/02/27 00:48:23;;;;;;;14.57;13.57;;;-2.70;99.90;;;;;;5020202;28;20452;-43
2023/02/27 00:50:49;;;;;;;14.00;13.10;;;-2.70;99.90;;;;;;5020680;28;20178;-42
2023/02/27 00:53:15;;;;;;;14.60;13.45;;;-2.80;99.90;;;;;;5019384;28;20472;-41
2023/02/27 00:55:40;;;;;;;14.83;13.83;;;-2.70;99.90;;;;;;5020158;28;20282;-42
2023/02/27 00:58:06;;;;;;;15.33;13.70;;;-2.70;99.90;;;;;;5018158;28;20264;-42
2023/02/27 01:00:32;;;;;;;13.77;12.77;;;-2.70;99.90;;;;;;5020370;28;20182;-43
2023/02/27 01:02:57;;;;;;;15.00;13.90;;;-2.70;99.90;;;;;;5019864;28;20183;-41
2023/02/27 01:05:23;;;;;;;14.37;13.27;;;-2.70;99.90;;;;;;5019267;28;20183;-43
2023/02/27 01:07:49;;;;;;;13.50;12.60;;;-2.70;99.90;;;;;;5019655;28;20194;-42
2023/02/27 01:10:14;;;;;;;14.13;13.23;;;-2.70;99.90;;;;;;5019123;28;20189;-42
2023/02/27 01:12:40;;;;;;;15.33;14.23;;;-2.70;99.90;;;;;;5020166;28;20230;-43
2023/02/27 01:15:07;;;;;;;16.40;15.10;;;-2.70;99.90;;;;;;5018748;28;20187;-41
2023/02/27 01:17:33;;;;;;;15.60;14.40;;;-2.60;99.90;;;;;;5020136;28;20464;-42
2023/02/27 01:19:59;;;;;;;15.13;13.93;;;-2.60;99.90;;;;;;5019953;28;20198;-42
2023/02/27 01:22:24;;;;;;;15.17;13.87;;;-2.60;99.90;;;;;;5019682;28;20459;-41
2023/02/27 01:24:50;;;;;;;14.60;13.70;;;-2.60;99.90;;;;;;5018504;28;20588;-41
2023/02/27 01:27:16;;;;;;;14.20;13.20;;;-2.50;99.90;;;;;;5019782;28;20190;-42
2023/02/27 01:29:41;;;;;;;14.37;13.40;;;-2.50;99.90;;;;;;5018234;28;20599;-44
2023/02/27 01:32:07;;;;;;;14.43;13.27;;;-2.50;99.90;;;;;;5019625;28;20240;-44
2023/02/27 01:34:33;;;;;;;15.43;13.98;;;-2.50;99.90;;;;;;5019877;28;20468;-43
2023/02/27 01:36:58;;;;;;;13.90;12.90;;;-2.50;99.90;;;;;;5019028;28;20281;-43
2023/02/27 01:39:25;;;;;;;14.13;13.20;;;-2.50;99.90;;;;;;5019622;28;20629;-44
2023/02/27 01:41:51;;;;;;;14.55;13.20;;;-2.60;99.90;;;;;;5018371;28;20170;-41
2023/02/27 01:44:17;;;;;;;13.70;12.80;;;-2.60;99.90;;;;;;5019182;28;20637;-41
2023/02/27 01:46:43;;;;;;;14.60;13.57;;;-2.80;99.90;;;;;;5018660;28;20496;-42
2023/02/27 01:49:20;;;;;;;14.57;13.57;;;-2.90;99.90;;;;;;5019489;28;20193;-42
2023/02/27 01:52:14;;;;;;;14.27;13.27;;;-2.90;99.90;;;;;;5017140;28;20185;-41
2023/02/27 01:54:41;;;;;;;14.68;13.65;;;-2.90;99.90;;;;;;5018340;28;20307;-41
2023/02/27 01:57:09;;;;;;;14.13;13.15;;;-3.00;99.90;;;;;;5019151;28;20202;-42
2023/02/27 01:59:39;;;;;;;15.10;14.10;;;-2.90;99.90;;;;;;5017879;28;20183;-42
2023/02/27 02:02:15;;;;;;;13.55;12.60;;;-3.00;99.90;;;;;;5018308;28;20277;-43
2023/02/27 02:04:42;;;;;;;14.38;13.18;;;-3.00;99.90;;;;;;5019258;28;20178;-42
2023/02/27 02:07:12;;;;;;;14.55;13.45;;;-3.10;99.90;;;;;;5018225;28;20186;-41
2023/02/27 02:09:45;;;;;;;14.32;13.27;;;-3.10;99.90;;;;;;5019032;28;20225;-41
2023/02/27 02:12:14;;;;;;;15.02;13.85;;;-3.10;99.90;;;;;;5018106;28;20194;-41
2023/02/27 02:14:40;;;;;;;13.95;12.85;;;-3.10;99.90;;;;;;5018975;28;20194;-41
2023/02/27 02:17:11;;;;;;;15.00;13.80;;;-3.20;99.90;;;;;;5018467;28;20393;-43
2023/02/27 02:20:12;;;;;;;13.82;12.82;;;-3.20;99.90;;;;;;5018255;28;20190;-41
2023/02/27 02:23:21;;;;;;;14.13;13.15;;;-3.30;99.90;;;;;;4999160;28;20205;-42
2023/02/27 02:26:17;;;;;;;13.70;12.60;;;-3.30;99.90;;;;;;5017402;28;20232;-42
2023/02/27 02:29:04;;;;;;;15.38;14.02;;;-3.30;99.90;;;;;;5017820;28;20182;-41
2023/02/27 02:32:05;;;;;;;13.73;12.80;;;-3.30;99.90;;;;;;5018853;28;20191;-42
2023/02/27 02:35:00;;;;;;;14.35;13.35;;;-3.20;99.90;;;;;;5018362;28;20251;-43
2023/02/27 02:37:41;;;;;;;13.93;13.02;;;-3.20;99.90;;;;;;5018421;28;20281;-41
2023/02/27 02:40:35;;;;;;;14.20;13.30;;;-3.20;99.90;;;;;;5019119;28;20194;-41
2023/02/27 02:43:33;;;;;;;13.93;12.95;;;-3.20;99.90;;;;;;5018368;28;20183;-40
2023/02/27 02:46:13;;;;;;;14.10;13.13;;;-3.10;99.90;;;;;;5010299;28;20222;-41
2023/02/27 02:48:58;;;;;;;13.55;12.65;;;-3.10;99.90;;;;;;5019242;28;20237;-42
2023/02/27 02:51:30;;;;;;;14.18;13.10;;;-3.10;99.90;;;;;;5016820;28;20190;-41
2023/02/27 02:54:00;;;;;;;13.82;12.85;;;-3.00;99.90;;;;;;5018895;28;20182;-44
2023/02/27 02:56:35;;;;;;;13.20;12.30;;;-2.90;99.90;;;;;;5018140;28;20313;-43
2023/02/27 02:59:08;;;;;;;14.15;13.10;;;-2.80;99.90;;;;;;5017728;28;20771;-43
2023/02/27 03:01:43;;;;;;;13.10;11.95;;;-2.70;99.90;;;;;;5015406;28;20183;-42
2023/02/27 03:04:17;;;;;;;13.45;12.55;;;-2.70;99.90;;;;;;5018660;28;20316;-42
2023/02/27 03:06:49;;;;;;;13.23;12.43;;;-2.70;99.90;;;;;;5017081;28;20179;-41
2023/02/27 03:09:14;;;;;;;13.35;12.50;;;-2.60;99.90;;;;;;5018550;28;20542;-41
2023/02/27 03:11:42;;;;;;;13.60;12.60;;;-2.50;99.90;;;;;;5018757;28;20186;-41
2023/02/27 03:14:16;;;;;;;12.88;12.02;;;-2.50;99.90;;;;;;5017736;28;20226;-42
2023/02/27 03:16:45;;;;;;;13.20;12.35;;;-2.40;99.90;;;;;;5019969;28;20186;-41
2023/02/27 03:19:16;;;;;;;15.10;13.65;;;-2.40;99.90;;;;;;5021681;28;20574;-42
2023/02/27 03:21:55;;;;;;;14.35;12.85;;;-2.30;99.90;;;;;;5022463;28;20572;-45
2023/02/27 03:24:27;;;;;;;13.40;12.50;;;-2.30;99.90;;;;;;5021959;28;20183;-42
2023/02/27 03:26:58;;;;;;;14.50;13.25;;;-2.20;99.90;;;;;;5021960;28;20179;-42
2023/02/27 03:29:36;;;;;;;13.70;12.70;;;-2.20;99.90;;;;;;5018937;28;20186;-43
2023/02/27 03:32:15;;;;;;;12.70;11.80;;;-2.10;99.90;;;;;;5021599;28;20190;-43
2023/02/27 03:34:42;;;;;;;13.57;12.57;;;-2.00;99.90;;;;;;5021793;28;20186;-42
2023/02/27 03:37:19;;;;;;;13.20;12.20;;;-2.00;99.90;;;;;;5021910;28;20577;-41
2023/02/27 03:39:47;;;;;;;13.07;12.27;;;-1.90;99.90;;;;;;5021472;28;20186;-42
2023/02/27 03:42:31;;;;;;;14.35;13.32;;;-1.90;99.90;;;;;;5021650;28;20194;-43
2023/02/27 03:45:18;;;;;;;14.20;12.90;;;-1.90;99.90;;;;;;5021505;28;20704;-43
2023/02/27 03:47:44;;;;;;;14.48;13.32;;;-1.80;99.90;;;;;;5020503;28;20194;-42
2023/02/27 03:50:10;;;;;;;13.70;12.70;;;-1.80;99.90;;;;;;5020918;28;20192;-43
2023/02/27 03:52:36;;;;;;;14.18;13.02;;;-1.80;99.90;;;;;;5021399;28;20607;-42
2023/02/27 03:55:08;;;;;;;14.13;13.13;;;-1.70;99.90;;;;;;5020700;28;20182;-42
2023/02/27 03:57:35;;;;;;;13.98;12.85;;;-1.70;99.90;;;;;;5021306;28;20599;-42
2023/02/27 04:00:04;;;;;;;14.15;13.20;;;-1.60;99.90;;;;;;5019879;28;20585;-44
2023/02/27 04:02:31;;;;;;;14.45;13.35;;;-1.60;99.90;;;;;;5020987;28;20178;-44
2023/02/27 04:04:56;;;;;;;14.57;13.57;;;-1.60;99.90;;;;;;5020464;28;20183;-43
2023/02/27 04:07:40;;;;;;;14.60;13.40;;;-1.60;99.90;;;;;;5021212;28;20201;-44
2023/02/27 04:10:20;;;;;;;12.77;11.63;;;-1.60;99.90;;;;;;5020610;28;20587;-43
2023/02/27 04:12:55;;;;;;;14.45;13.35;;;-1.50;99.90;;;;;;5021149;28;20222;-43
2023/02/27 04:15:49;;;;;;;13.70;12.60;;;-1.50;99.90;;;;;;5020110;28;20178;-42
2023/02/27 04:18:20;;;;;;;15.27;14.18;;;-1.50;99.90;;;;;;5019916;28;20210;-44
2023/02/27 04:21:24;;;;;;;14.05;12.85;;;-1.50;99.90;;;;;;5021127;28;20641;-41
2023/02/27 04:24:03;;;;;;;13.38;12.35;;;-1.50;99.90;;;;;;5018898;28;20206;-42
2023/02/27 04:27:07;;;;;;;14.95;13.75;;;-1.50;99.90;;;;;;5020564;28;20178;-42
2023/02/27 04:29:47;;;;;;;14.45;13.35;;;-1.50;99.90;;;;;;4999207;28;20562;-42
2023/02/27 04:32:34;;;;;;;16.10;14.90;;;-1.40;99.90;;;;;;5020676;28;20231;-43
2023/02/27 04:35:06;;;;;;;36.90;33.47;;;-1.50;99.90;;;;;;5019865;28;20217;-42
2023/02/27 04:37:41;;;;;;;23.80;21.80;;;-1.40;99.90;;;;;;5020716;28;20202;-42
2023/02/27 04:40:11;;;;;;;19.27;17.55;;;-1.40;99.90;;;;;;5020372;28;20436;-42
2023/02/27 04:42:47;;;;;;;18.05;16.63;;;-1.40;99.90;;;;;;5020530;28;20764;-44
2023/02/27 04:45:17;;;;;;;15.57;14.05;;;-1.40;99.90;;;;;;5019516;28;20217;-45
2023/02/27 04:48:08;;;;;;;15.65;14.60;;;-1.40;99.90;;;;;;5020001;28;20566;-43
2023/02/27 04:50:38;;;;;;;15.02;13.82;;;-1.40;99.90;;;;;;5020656;28;20627;-42
2023/02/27 04:53:37;;;;;;;15.77;14.55;;;-1.40;99.90;;;;;;5019898;28;20201;-43
2023/02/27 04:56:14;;;;;;;16.73;15.48;;;-1.40;99.90;;;;;;5017914;28;20371;-41
2023/02/27 04:58:46;;;;;;;14.65;13.45;;;-1.40;99.90;;;;;;5020910;28;20224;-42
2023/02/27 05:01:36;;;;;;;14.45;13.45;;;-1.30;99.90;;;;;;5020201;28;20193;-45
2023/02/27 05:04:04;;;;;;;14.18;13.18;;;-1.30;99.90;;;;;;5020294;28;20210;-43
2023/02/27 05:06:33;;;;;;;14.73;13.80;;;-1.30;99.90;;;;;;5018590;28;20183;-42
2023/02/27 05:09:07;;;;;;;15.00;13.90;;;-1.30;99.90;;;;;;5020143;28;20190;-45
2023/02/27 05:11:51;;;;;;;15.48;14.32;;;-1.30;99.90;;;;;;5020267;28;20523;-45
2023/02/27 05:14:29;;;;;;;14.32;13.40;;;-1.30;99.90;;;;;;5018199;28;20617;-42
2023/02/27 05:17:09;;;;;;;14.43;13.35;;;-1.20;99.90;;;;;;5020597;28;20197;-45
2023/02/27 05:19:39;;;;;;;14.52;13.43;;;-1.20;99.90;;;;;;5020428;28;21041;-41
2023/02/27 05:22:22;;;;;;;17.88;16.27;;;-1.20;99.90;;;;;;5020972;28;20617;-42
2023/02/27 05:24:56;;;;;;;17.30;16.10;;;-1.20;99.90;;;;;;5017927;28;20180;-41
2023/02/27 05:27:33;;;;;;;15.38;13.98;;;-1.20;99.90;;;;;;5020924;28;20186;-42
2023/02/27 05:30:08;;;;;;;14.68;13.57;;;-1.10;99.90;;;;;;5019735;28;20199;-44
2023/02/27 05:32:43;;;;;;;20.45;18.67;;;-1.20;99.90;;;;;;5019529;28;20228;-42
2023/02/27 05:35:30;;;;;;;17.73;16.35;;;-1.10;99.90;;;;;;5020465;28;20183;-44
2023/02/27 05:38:03;;;;;;;17.13;15.73;;;-1.10;99.90;;;;;;5020765;28;20233;-42
2023/02/27 05:40:34;;;;;;;17.73;16.33;;;-1.20;99.90;;;;;;5019656;28;20261;-41
2023/02/27 05:43:09;;;;;;;18.13;16.70;;;-1.20;99.90;;;;;;5019034;28;20178;-45
2023/02/27 05:45:37;;;;;;;15.57;14.57;;;-1.20;99.90;;;;;;5020664;28;20174;-46
2023/02/27 05:48:38;;;;;;;16.73;15.52;;;-1.20;99.90;;;;;;5020862;28;20201;-41
2023/02/27 05:51:07;;;;;;;15.60;14.50;;;-1.20;99.90;;;;;;5007771;28;20206;-41
2023/02/27 05:53:38;;;;;;;14.93;13.80;;;-1.20;99.90;;;;;;5020088;28;20244;-41
2023/02/27 05:56:06;;;;;;;16.15;15.05;;;-1.20;99.90;;;;;;5019388;28;20660;-41
2023/02/27 05:58:44;;;;;;;14.45;13.27;;;-1.20;99.90;;;;;;5019424;28;20297;-41
2023/02/27 06:01:11;;;;;;;14.35;13.35;;;-1.20;99.90;;;;;;5018280;28;20537;-43
2023/02/27 06:03:38;;;;;;;14.85;13.80;;;-1.20;99.90;;;;;;5019506;28;20182;-41
2023/02/27 06:06:07;;;;;;;15.93;14.50;;;-1.20;99.90;;;;;;5019438;28;20688;-41
2023/02/27 06:08:34;;;;;;;14.88;13.70;;;-1.20;99.90;;;;;;5019243;28;20613;-41
2023/02/27 06:10:59;;;;;;;14.55;13.45;;;-1.10;99.90;;;;;;5019841;28;20216;-41
2023/02/27 06:13:25;;;;;;;15.80;13.87;;;-1.10;99.90;;;;;;5017744;28;20242;-41
2023/02/27 06:15:51;;;;;;;15.33;14.33;;;-1.20;99.90;;;;;;5019666;28;20237;-41
2023/02/27 06:18:18;;;;;;;16.15;15.05;;;-1.20;99.90;;;;;;5019755;28;20206;-42
2023/02/27 06:20:44;;;;;;;15.00;13.90;;;-1.20;99.90;;;;;;5019199;28;20201;-44
2023/02/27 06:23:10;;;;;;;14.45;13.23;;;-1.20;99.90;;;;;;5019358;28;20647;-42
2023/02/27 06:25:37;;;;;;;73.05;62.03;;;-1.20;99.90;;;;;;5013021;28;20181;-42
2023/02/27 06:28:03;;;;;;;33.63;30.05;;;-1.10;99.90;;;;;;5018052;28;20190;-42
2023/02/27 06:30:29;;;;;;;22.83;20.85;;;-1.10;99.90;;;;;;5018610;28;20784;-41
2023/02/27 06:32:54;;;;;;;17.90;16.43;;;-1.10;99.90;;;;;;5018427;28;20194;-42
2023/02/27 06:35:23;;;;;;;15.70;14.50;;;-1.10;99.90;;;;;;5019163;28;20240;-41
2023/02/27 06:37:48;;;;;;;17.25;15.68;;;-1.10;99.90;;;;;;5019403;28;20215;-43
2023/02/27 06:40:14;;;;;;;15.67;14.37;;;-1.00;99.90;;;;;;5019145;28;20183;-43
2023/02/27 06:42:42;;;;;;;16.27;14.97;;;-1.00;99.90;;;;;;5019110;28;20197;-42
2023/02/27 06:45:08;;;;;;;15.70;14.60;;;-1.00;99.90;;;;;;5018930;28;20944;-43
2023/02/27 06:47:34;;;;;;;15.55;14.45;;;-1.00;99.90;;;;;;5017879;28;20235;-41
2023/02/27 06:50:00;;;;;;;14.67;13.57;;;-0.90;99.90;;;;;;5017545;28;20597;-41
2023/02/27 06:52:26;;;;;;;14.10;13.10;;;-0.90;99.90;;;;;;5022467;28;20189;-41
2023/02/27 06:54:52;;;;;;;13.35;12.32;;;-0.80;99.90;;;;;;5022769;28;20486;-41
2023/02/27 06:57:18;;;;;;;15.60;14.40;;;-0.80;99.90;;;;;;5022077;28;20210;-43
2023/02/27 06:59:44;;;;;;;15.48;14.27;;;-0.70;99.90;;;;;;5023164;28;20202;-41
2023/02/27 07:02:13;;;;;;;15.10;14.00;;;-0.60;99.90;;;;;;5021193;28;20427;-41
2023/02/27 07:04:39;;;;;;;19.95;18.25;;;-0.60;99.90;;;;;;5022384;28;20639;-43
2023/02/27 07:07:05;;;;;;;20.00;18.20;;;-0.50;99.90;;;;;;5022714;28;20178;-42
2023/02/27 07:09:31;;;;;;;16.03;14.70;;;-0.40;99.90;;;;;;5022795;28;20736;-42
2023/02/27 07:11:56;;;;;;;16.80;15.60;;;-0.40;99.90;;;;;;5022657;28;20207;-42
2023/02/27 07:14:22;;;;;;;16.20;15.10;;;-0.40;99.90;;;;;;5022376;28;20743;-42
2023/02/27 07:16:52;;;;;;;16.67;15.23;;;-0.30;99.90;;;;;;5021974;28;20210;-42
2023/02/27 07:19:23;;;;;;;16.17;14.98;;;-0.20;99.90;;;;;;5022066;28;21117;-41
2023/02/27 07:21:49;;;;;;;15.70;14.60;;;-0.10;99.90;;;;;;5022278;28;20204;-41
2023/02/27 07:24:14;;;;;;;16.17;15.07;;;0.00;99.90;;;;;;5022328;28;20191;-44
2023/02/27 07:26:40;;;;;;;15.50;14.40;;;0.00;99.90;;;;;;5022073;28;20660;-43
2023/02/27 07:29:06;;;;;;;16.53;15.23;;;0.10;99.90;;;;;;5019493;28;20741;-41
2023/02/27 07:31:32;;;;;;;16.30;15.10;;;0.20;99.90;;;;;;5021403;28;20196;-42
2023/02/27 07:33:58;;;;;;;16.50;15.40;;;0.20;99.90;;;;;;5022060;28;20196;-44
2023/02/27 07:36:23;;;;;;;15.67;14.57;;;0.30;99.90;;;;;;5022104;28;20183;-43
2023/02/27 07:38:49;;;;;;;15.80;14.60;;;0.40;99.90;;;;;;5022274;28;20242;-43
2023/02/27 07:41:15;;;;;;;16.90;15.77;;;0.40;99.90;;;;;;5022118;28;20511;-42
2023/02/27 07:43:41;;;;;;;16.30;15.25;;;0.50;99.90;;;;;;5021561;28;20188;-43
2023/02/27 07:46:06;;;;;;;17.37;16.10;;;0.60;99.90;;;;;;5021800;28;20185;-42
2023/02/27 07:48:33;;;;;;;15.90;14.90;;;0.70;99.90;;;;;;5021964;28;20639;-42
2023/02/27 07:50:59;;;;;;;16.90;15.70;;;0.80;99.90;;;;;;5021868;28;20193;-42
2023/02/27 07:53:25;;;;;;;15.82;14.63;;;0.80;99.90;;;;;;5021016;28;20189;-42
2023/02/27 07:55:50;;;;;;;16.10;15.00;;;0.90;99.90;;;;;;5022066;28;20196;-42
2023/02/27 07:58:16;;;;;;;16.63;15.43;;;1.00;99.90;;;;;;5020814;28;20489;-43
2023/02/27 08:00:42;;;;;;;15.93;14.93;;;1.10;99.90;;;;;;5021675;28;20508;-42
2023/02/27 08:03:08;;;;;;;16.00;14.80;;;1.20;99.90;;;;;;5021058;28;20635;-43
2023/02/27 08:05:34;;;;;;;18.25;17.15;;;1.40;99.90;;;;;;5021649;28;21079;-42
2023/02/27 08:08:00;;;;;;;17.88;16.67;;;1.50;99.90;;;;;;5021881;28;20185;-42
2023/02/27 08:10:26;;;;;;;19.00;17.60;;;1.50;99.90;;;;;;5021601;28;20667;-43
2023/02/27 08:12:51;;;;;;;19.10;17.80;;;1.60;99.90;;;;;;5021891;28;20237;-44
2023/02/27 08:15:17;;;;;;;17.40;16.30;;;1.60;99.90;;;;;;5021898;28;20428;-42
2023/02/27 08:17:44;;;;;;;17.73;16.60;;;1.70;99.90;;;;;;5019112;28;20568;-42
2023/02/27 08:20:11;;;;;;;17.67;16.38;;;1.70;99.90;;;;;;5021569;28;20221;-43
2023/02/27 08:22:37;;;;;;;19.17;17.98;;;1.80;99.90;;;;;;5021371;28;20182;-43
2023/02/27 08:25:06;;;;;;;19.33;17.83;;;1.80;99.90;;;;;;5021051;28;20182;-41
2023/02/27 08:27:35;;;;;;;20.45;18.95;;;1.80;99.90;;;;;;5019258;28;20645;-45
2023/02/27 08:30:01;;;;;;;18.80;17.50;;;1.90;99.90;;;;;;5020213;28;20335;-44
2023/02/27 08:32:26;;;;;;;18.07;16.93;;;2.00;99.90;;;;;;5020801;28;20203;-41
2023/02/27 08:34:53;;;;;;;18.80;17.40;;;2.00;99.90;;;;;;5021286;28;20281;-42
2023/02/27 08:37:18;;;;;;;19.65;18.45;;;2.00;99.90;;;;;;5021322;28;20651;-43
2023/02/27 08:39:44;;;;;;;19.53;18.13;;;2.10;99.90;;;;;;5020744;28;20181;-41
2023/02/27 08:42:10;;;;;;;19.87;18.50;;;2.20;99.90;;;;;;5021096;28;20640;-41
2023/02/27 08:44:35;;;;;;;20.70;19.40;;;2.20;99.90;;;;;;5019133;28;20269;-46
2023/02/27 08:47:01;;;;;;;20.43;18.93;;;2.30;99.90;;;;;;5020924;28;20743;-44
2023/02/27 08:49:27;;;;;;;19.93;18.57;;;2.40;99.90;;;;;;5020993;28;20178;-40
2023/02/27 08:51:52;;;;;;;19.47;18.07;;;2.40;99.90;;;;;;5020664;28;20198;-41
2023/02/27 08:54:19;;;;;;;18.60;17.40;;;2.70;99.90;;;;;;5020958;28;20252;-42
2023/02/27 08:56:46;;;;;;;18.75;17.40;;;2.70;99.90;;;;;;5020566;28;20424;-44
2023/02/27 08:59:11;;;;;;;18.05;16.85;;;2.80;99.90;;;;;;5020338;28;20968;-43
2023/02/27 09:01:37;;;;;;;17.57;16.47;;;2.90;99.90;;;;;;5020789;28;20232;-43
2023/02/27 09:04:04;;;;;;;17.37;16.27;;;3.00;99.90;;;;;;5018902;28;20200;-45
2023/02/27 09:06:30;;;;;;;18.10;17.00;;;3.30;99.90;;;;;;5018912;28;20606;-43
2023/02/27 09:08:57;;;;;;;16.70;15.70;;;3.40;99.90;;;;;;5020531;28;20189;-44
2023/02/27 09:11:23;;;;;;;16.90;15.70;;;3.60;99.90;;;;;;5020267;28;20241;-44
2023/02/27 09:13:50;;;;;;;16.15;14.85;;;3.60;99.90;;;;;;5019900;28;20607;-47
2023/02/27 09:16:16;;;;;;;17.02;15.65;;;3.60;99.90;;;;;;5019534;28;20652;-43
2023/02/27 09:18:43;;;;;;;17.23;15.93;;;3.70;99.90;;;;;;5019969;28;20287;-43
2023/02/27 09:21:08;;;;;;;16.20;15.20;;;3.90;99.90;;;;;;5020547;28;20671;-43
2023/02/27 09:23:34;;;;;;;17.27;16.07;;;4.10;99.90;;;;;;5020567;28;20186;-44
2023/02/27 09:26:00;;;;;;;16.97;15.57;;;4.40;99.90;;;;;;5020328;28;20178;-45
2023/02/27 09:28:26;;;;;;;16.27;15.07;;;4.60;99.90;;;;;;5020482;28;20512;-46
2023/02/27 09:30:52;;;;;;;18.02;16.73;;;4.90;99.90;;;;;;5020373;28;20607;-44
2023/02/27 09:33:17;;;;;;;15.10;14.17;;;5.10;99.90;;;;;;5020242;28;20404;-42
2023/02/27 09:35:43;;;;;;;56.33;51.60;;;5.20;99.90;;;;;;5019926;28;20221;-43
2023/02/27 09:38:10;;;;;;;19.73;18.40;;;5.10;99.90;;;;;;5019799;28;20221;-45
2023/02/27 09:40:42;;;;;;;20.10;18.63;;;4.90;99.90;;;;;;5019905;28;20175;-45
2023/02/27 09:43:19;;;;;;;16.98;15.98;;;4.80;99.90;;;;;;5019843;28;20187;-43
2023/02/27 09:45:48;;;;;;;15.77;14.88;;;4.80;99.90;;;;;;5018333;28;20182;-46
2023/02/27 09:48:35;;;;;;;15.93;14.93;;;4.30;99.90;;;;;;5019358;28;20193;-41
2023/02/27 09:51:01;;;;;;;17.48;16.13;;;4.10;99.90;;;;;;5019825;28;20178;-42
2023/02/27 09:53:36;;;;;;;16.95;15.85;;;3.70;99.90;;;;;;5019690;28;20281;-44
2023/02/27 09:56:39;;;;;;;16.77;15.57;;;3.70;99.90;;;;;;5019998;28;20615;-42
2023/02/27 09:59:30;;;;;;;17.13;15.60;;;3.40;99.90;;;;;;5018826;28;20201;-42
2023/02/27 10:02:07;;;;;;;17.02;15.82;;;3.50;99.90;;;;;;5018239;28;20648;-43
2023/02/27 10:04:40;;;;;;;16.13;15.10;;;3.60;99.90;;;;;;5019187;28;20181;-47
2023/02/27 10:07:37;;;;;;;16.88;15.77;;;3.90;99.90;;;;;;5019442;28;20232;-40
2023/02/27 10:10:34;;;;;;;15.90;14.90;;;4.00;99.90;;;;;;5019671;28;20811;-43
2023/02/27 10:13:18;;;;;;;15.00;14.10;;;4.20;99.90;;;;;;5019344;28;20735;-46
2023/02/27 10:15:50;;;;;;;15.60;14.60;;;4.40;99.90;;;;;;5018333;28;20190;-43
2023/02/27 10:18:18;;;;;;;14.82;14.00;;;4.70;99.90;;;;;;5019189;28;20194;-43
2023/02/27 10:21:04;;;;;;;14.82;13.73;;;4.90;99.90;;;;;;5019147;28;20664;-44
2023/02/27 10:23:33;;;;;;;15.07;13.90;;;4.90;99.90;;;;;;5019462;28;20214;-44
2023/02/27 10:26:00;;;;;;;14.50;13.60;;;4.90;99.90;;;;;;5021628;28;20363;-44
2023/02/27 10:28:26;;;;;;;14.20;13.30;;;5.10;99.90;;;;;;5023414;28;20194;-42
2023/02/27 10:30:55;;;;;;;14.13;13.32;;;5.00;99.90;;;;;;5023354;28;20182;-46
2023/02/27 10:33:26;;;;;;;14.23;13.43;;;4.90;99.90;;;;;;5023685;28;20175;-44
2023/02/27 10:35:52;;;;;;;13.73;12.85;;;4.90;99.90;;;;;;5023213;28;21142;-45
2023/02/27 10:38:32;;;;;;;14.68;13.70;;;4.80;99.90;;;;;;5023545;28;20453;-43
2023/02/27 10:40:59;;;;;;;13.43;12.20;;;4.70;99.90;;;;;;5023187;28;20480;-43
2023/02/27 10:43:25;;;;;;;14.50;13.60;;;4.80;99.90;;;;;;5021747;28;20194;-43
2023/02/27 10:45:52;;;;;;;13.87;12.77;;;4.80;99.90;;;;;;5022293;28;20190;-47
2023/02/27 10:48:18;;;;;;;13.82;13.00;;;4.60;99.90;;;;;;5022080;28;20424;-47
2023/02/27 10:50:50;;;;;;;12.77;11.98;;;4.50;99.90;;;;;;5022738;28;20289;-45
2023/02/27 10:53:26;;;;;;;13.75;12.85;;;4.60;99.90;;;;;;5022957;28;20187;-42
2023/02/27 10:56:04;;;;;;;14.10;13.20;;;4.80;99.90;;;;;;5023040;28;20544;-43
2023/02/27 10:58:33;;;;;;;15.13;14.07;;;4.80;99.90;;;;;;5022818;28;20300;-42
2023/02/27 11:01:02;;;;;;;16.67;15.57;;;4.90;99.90;;;;;;5021838;28;20228;-48
2023/02/27 11:03:43;;;;;;;14.65;13.73;;;4.80;99.90;;;;;;5022995;28;20194;-42
2023/02/27 11:06:23;;;;;;;14.82;13.95;;;4.80;99.90;;;;;;5022696;28;20193;-43
2023/02/27 11:09:16;;;;;;;13.93;13.18;;;4.90;99.90;;;;;;5022602;28;20252;-47
2023/02/27 11:11:42;;;;;;;13.85;13.00;;;4.90;99.90;;;;;;5022559;28;20637;-46
2023/02/27 11:14:27;;;;;;;12.40;11.70;;;5.20;99.90;;;;;;5020315;28;20324;-42
2023/02/27 11:16:58;;;;;;;18.33;16.80;;;5.10;99.90;;;;;;5022484;28;20641;-43
2023/02/27 11:19:25;;;;;;;13.52;12.82;;;4.90;99.90;;;;;;5022934;28;21133;-46
2023/02/27 11:22:03;;;;;;;12.57;11.80;;;4.80;99.90;;;;;;5021549;28;20183;-42
2023/02/27 11:24:30;;;;;;;13.50;12.70;;;4.80;99.90;;;;;;5022211;28;20253;-42
2023/02/27 11:27:05;;;;;;;13.75;13.05;;;4.80;99.90;;;;;;5022280;28;20193;-43
2023/02/27 11:29:33;;;;;;;11.70;11.10;;;4.90;99.90;;;;;;5022641;28;20644;-45
2023/02/27 11:32:02;;;;;;;12.32;11.63;;;4.80;99.90;;;;;;5021705;28;20214;-43
2023/02/27 11:34:30;;;;;;;12.02;11.30;;;4.80;99.90;;;;;;5021572;28;20281;-41
2023/02/27 11:37:18;;;;;;;13.35;12.57;;;5.00;99.90;;;;;;5021539;28;20271;-43
2023/02/27 11:40:01;;;;;;;13.40;12.70;;;4.90;99.90;;;;;;5022668;28;20182;-45
2023/02/27 11:42:33;;;;;;;13.10;12.40;;;5.20;99.90;;;;;;5022501;28;20183;-46
2023/02/27 11:45:20;;;;;;;12.48;11.70;;;5.30;99.90;;;;;;5022168;28;20179;-42
2023/02/27 11:47:53;;;;;;;12.82;12.13;;;5.20;99.90;;;;;;5022158;28;20608;-44
2023/02/27 11:50:24;;;;;;;13.60;12.80;;;5.20;99.90;;;;;;5021832;28;20273;-43
2023/02/27 11:53:11;;;;;;;16.70;15.38;;;5.20;99.90;;;;;;5020291;28;20190;-43
2023/02/27 11:55:37;;;;;;;12.05;11.35;;;5.40;99.90;;;;;;5021901;28;20193;-43
2023/02/27 11:58:19;;;;;;;12.77;12.07;;;5.40;99.90;;;;;;5021620;28;20220;-44
2023/02/27 12:01:02;;;;;;;11.85;11.25;;;5.40;99.90;;;;;;5021132;28;20209;-44
2023/02/27 12:03:51;;;;;;;11.40;10.70;;;5.50;99.90;;;;;;5022120;28;20235;-45
2023/02/27 12:06:21;;;;;;;12.50;11.90;;;5.90;99.90;;;;;;5021715;28;20262;-45
2023/02/27 12:09:02;;;;;;;12.27;11.60;;;6.10;99.90;;;;;;5021680;28;20425;-44
2023/02/27 12:11:35;;;;;;;10.37;9.87;;;6.30;99.90;;;;;;5021931;28;20806;-42
2023/02/27 12:14:07;;;;;;;12.80;12.10;;;6.50;99.60;;;;;;5021515;28;20473;-47
2023/02/27 12:16:42;;;;;;;11.10;10.57;;;6.60;99.00;;;;;;5021391;28;20421;-42
2023/02/27 12:19:18;;;;;;;12.80;12.10;;;6.80;98.60;;;;;;5021266;28;20448;-42
2023/02/27 12:22:09;;;;;;;11.90;11.30;;;6.80;97.70;;;;;;5022217;28;20417;-42
2023/02/27 12:24:51;;;;;;;12.80;12.10;;;6.80;97.50;;;;;;5015267;28;20702;-42
2023/02/27 12:27:24;;;;;;;12.03;11.43;;;6.60;96.00;;;;;;5020945;28;20708;-43
2023/02/27 12:30:06;;;;;;;10.60;10.10;;;6.60;97.90;;;;;;5020684;28;20492;-45
2023/02/27 12:32:41;;;;;;;11.40;10.73;;;6.70;97.00;;;;;;5021521;28;20647;-46
2023/02/27 12:35:28;;;;;;;11.97;11.37;;;6.90;99.40;;;;;;5021217;28;20413;-46
2023/02/27 12:37:55;;;;;;;12.07;11.47;;;7.20;97.50;;;;;;5020998;28;20452;-48
2023/02/27 12:40:31;;;;;;;12.30;11.70;;;7.50;96.00;;;;;;5021038;28;20424;-44
2023/02/27 12:43:00;;;;;;;12.30;11.73;;;7.60;94.60;;;;;;5020900;28;20449;-43
2023/02/27 12:45:52;;;;;;;14.30;13.50;;;7.60;94.90;;;;;;5020307;28;20422;-47
2023/02/27 12:48:30;;;;;;;12.47;11.77;;;7.50;93.30;;;;;;5019722;28;20415;-48
2023/02/27 12:51:07;;;;;;;13.53;12.83;;;7.40;95.20;;;;;;5020923;28;20465;-42
2023/02/27 12:54:04;;;;;;;10.73;10.23;;;7.40;92.50;;;;;;5019457;28;20947;-44
2023/02/27 12:57:01;;;;;;;11.97;11.27;;;7.30;93.90;;;;;;5020817;28;20433;-42